Impacts TAF Board
For situational awareness. Not to be used for flight planning purposes.
IDs:

KPDX - Portland Intl Arpt, OR, US

Issued at 1337 UTC 30 Mar 2020
Updated at 1343 UTC 30 Mar 2020
Potential Impact None Slight Moderate High
Time1319Z 30/14Z 30/15Z 30/16Z 30/17Z 30/18Z 30/19Z 30/20Z 30/21Z 30/22Z 30/23Z 31/00Z 31/01Z 31/02Z>>
Type OBS PRVL PRVL PRVL PRVL PRVL PRVL PRVL PRVL PRVL PRVL PRVL PRVL PRVL
VIS 10 >6 >6 >6 >6 >6 >6 >6 >6 >6 >6 >6 >6 >6
CIG 36 35 35 35 35 35 35 35 35 35 35 35 35 25
Cover OVC OVC OVC OVC OVC OVC OVC OVC OVC OVC OVC OVC OVC BKN
FltCat VFR VFR VFR VFR VFR VFR VFR VFR VFR VFR VFR VFR VFR MVFR
WX -RA -SHRA -SHRA -SHRA -SHRA -SHRA -SHRA -SHRA -SHRA -SHRA -SHRA -SHRA -SHRA -SHRA
WDir 270 270 270 270 270 270 270 270 270 270 270 270 270 210
WSpd 12 12 12 12 12 12 12 12 12 12 12 12 12 8
WGst -- 20 20 20 20 20 20 20 20 20 20 20 20 --
Raw TAF
KPDX 301337Z 3014/3112 27012G20KT P6SM -SHRA FEW016 BKN035 OVC070
  FM310200 21008KT P6SM -SHRA SCT014 BKN025
  FM310900 22007KT P6SM -SHRA SCT016 BKN080


Raw METAR
KPDX 301319Z 27012KT 10SM -RA FEW016 BKN036 OVC070 08/05 A2979 RMK AO2 P0010 T00830050
KPDX 301302Z 24011KT 7SM -RA FEW016 BKN029 OVC038 09/07 A2979 RMK AO2 P0006 T00940067
KPDX 301253Z 24011KT 4SM RA FEW013 SCT020 OVC037 09/07 A2977 RMK AO2 RAE1157B23 SLP081 P0003 T00940067
KPDX 301209Z 18013KT 10SM FEW020 SCT027 BKN110 09/07 A2975 RMK AO2 RAE1157 P0000 T00940067
KPDX 301153Z 19012KT 10SM -RA BKN024 BKN033 OVC044 09/07 A2975 RMK AO2 PK WND 20031/1100 SLP073 P0005 60013 70023 T00940067 10111 20094 56001
KPDX 301149Z 19010KT 9SM -RA BKN024 BKN033 OVC044 09/07 A2975 RMK AO2 PK WND 20031/1100 P0005
KPDX 301128Z 22016G25KT 7SM -RA FEW021 BKN030 OVC036 10/07 A2976 RMK AO2 PK WND 20031/1100 P0002 T01000067
KPDX 301053Z 19020G29KT 10SM -RA BKN023 OVC036 10/06 A2974 RMK AO2 PK WND 18029/1045 SLP071 P0001 T01000061

METAR Board
Radar Display
Forecast Discussion
For situational awareness. Not to be used for flight planning purposes.